Christina G — ZCXO5 — position and weather

sailwx.info

Track history (hours):
 
Tides and Currents Weather Stations Pressure Air Temp Water Temp Dewpoint Dewpoint Depression Visibility Wind Speed Wind Dir Waves Ship Positions

Christina G

Last reported at 2014-Jul-26 11:33 UTC. Time now 2014-Jul-26 13:12 UTC.
Position N 44°06' E 008°45'.

Length 33 m; draft 2.5 m.

MMSI: 319032100.

Date/timePositionNaut miles runAvg speedWind from/ knotsBaromVisibWave heightAir tempDewpointWater temp
2014-Jul-26 11:33N 44°06' E 008°45'1010.2
2014-Jul-26 10:33N 44°12' E 008°58'9 9.2
2014-Jul-26 09:33N 44°16' E 009°09'  
2014-Jul-23 09:34N 44°17' E 009°10'1110.6
2014-Jul-23 08:32N 44°15' E 008°55'1010.5
2014-Jul-23 07:32N 44°14' E 008°41'9 9.6
2014-Jul-23 06:33N 44°12' E 008°28'2 1.3
2014-Jul-23 05:13N 44°12' E 008°25'0 0.0
2014-Jul-23 04:25N 44°12' E 008°25'0 0.0
2014-Jul-23 03:19N 44°12' E 008°25'0 0.0
2014-Jul-23 02:31N 44°12' E 008°25'0 0.0
2014-Jul-23 01:31N 44°12' E 008°25'0 0.0
2014-Jul-23 00:31N 44°12' E 008°25'0 0.0
2014-Jul-22 23:16N 44°12' E 008°25'0 0.0
2014-Jul-22 22:13N 44°12' E 008°25'0 0.0
2014-Jul-22 19:31N 44°12' E 008°25'13 4.5
2014-Jul-22 16:31N 44°02' E 008°14'0 0.0
2014-Jul-22 15:33N 44°02' E 008°14'0 0.0
2014-Jul-22 14:33N 44°02' E 008°14'0 0.0
2014-Jul-22 13:33N 44°02' E 008°14'42 1.6
2014-Jul-21 10:19N 43°41' E 007°22'4 2.1
2014-Jul-21 08:28N 43°42' E 007°17'0 0.0
2014-Jul-21 07:28N 43°42' E 007°17'0 0.0
2014-Jul-21 06:22N 43°42' E 007°17'0 0.0
2014-Jul-21 04:22N 43°42' E 007°17'0 0.0
2014-Jul-21 03:28N 43°42' E 007°17'0 0.0
2014-Jul-21 02:28N 43°42' E 007°17'0 0.0
2014-Jul-21 01:22N 43°42' E 007°17'0 0.0
2014-Jul-21 00:28N 43°42' E 007°17'0 0.0
2014-Jul-20 23:22N 43°42' E 007°17'0 0.0
2014-Jul-20 22:10N 43°42' E 007°17'0 0.0
2014-Jul-20 20:10N 43°42' E 007°17'0 0.0
2014-Jul-20 19:28N 43°42' E 007°17'0 0.0
2014-Jul-20 18:28N 43°42' E 007°17'0 0.0
2014-Jul-20 17:22N 43°42' E 007°17'1 1.4
2014-Jul-20 16:30N 43°41' E 007°18'1 1.0
2014-Jul-20 15:28N 43°42' E 007°19'0 0.0
2014-Jul-20 14:32N 43°42' E 007°19'0 0.0
2014-Jul-20 13:33N 43°42' E 007°19'0 0.0
2014-Jul-20 12:33N 43°42' E 007°19'7 0.2
2014-Jul-18 16:07N 43°38' E 007°12'4 5.5
2014-Jul-18 15:23N 43°35' E 007°07'10 1.0
2014-Jul-18 05:33N 43°42' E 007°17'0 0.0
2014-Jul-18 04:27N 43°42' E 007°17'0 0.0
2014-Jul-18 03:33N 43°42' E 007°17'0 0.0
2014-Jul-18 02:33N 43°42' E 007°17'0 0.0
2014-Jul-18 01:21N 43°42' E 007°17'0 0.0
2014-Jul-18 00:33N 43°42' E 007°17'0 0.0
2014-Jul-17 23:33N 43°42' E 007°17'0 0.0
2014-Jul-17 22:27N 43°42' E 007°17'0 0.0
2014-Jul-17 19:03N 43°42' E 007°17'0 0.0
2014-Jul-17 17:27N 43°42' E 007°17'0 0.0
2014-Jul-17 15:13N 43°42' E 007°17'3 5.2
2014-Jul-17 14:33N 43°39' E 007°15'6 6.4
2014-Jul-17 13:33N 43°35' E 007°08'0 0.0
2014-Jul-17 12:33N 43°35' E 007°08'0 0.0
2014-Jul-17 11:33N 43°35' E 007°08'0 0.0
2014-Jul-17 10:33N 43°35' E 007°08'0 0.0
2014-Jul-17 09:33N 43°35' E 007°08'0 0.0
2014-Jul-17 08:33N 43°35' E 007°08'2 1.3
2014-Jul-17 07:24N 43°33' E 007°07'0 0.0
2014-Jul-17 06:30N 43°33' E 007°07'0 0.0
2014-Jul-17 05:30N 43°33' E 007°07'0 0.0
2014-Jul-17 04:30N 43°33' E 007°07'0 0.0
2014-Jul-17 03:30N 43°33' E 007°07'0 0.0
2014-Jul-17 02:24N 43°33' E 007°07'0 0.0
2014-Jul-17 01:30N 43°33' E 007°07'0 0.0
2014-Jul-17 00:24N 43°33' E 007°07'0 0.0
2014-Jul-16 23:30N 43°33' E 007°07'0 0.0
2014-Jul-16 22:24N 43°33' E 007°07'0 0.0
2014-Jul-16 21:30N 43°33' E 007°07'0 0.0
2014-Jul-16 20:30N 43°33' E 007°07'0 0.0
2014-Jul-16 19:18N 43°33' E 007°07'0 0.0
2014-Jul-16 18:18N 43°33' E 007°07'0 0.0
2014-Jul-16 17:30N 43°33' E 007°07'0 0.0
2014-Jul-16 16:30N 43°33' E 007°07'0 0.0
2014-Jul-16 15:33N 43°33' E 007°07'0 0.0
2014-Jul-16 14:33N 43°33' E 007°07'0 0.0
2014-Jul-16 13:33N 43°33' E 007°07'0 0.4
2014-Jul-16 12:33N 43°33' E 007°07'  
Track history (hours):
 
Tides and Currents Weather Stations Pressure Air Temp Water Temp Dewpoint Dewpoint Depression Visibility Wind Speed Wind Dir Waves Ship Positions

Christina G

Last reported at 2014-Jul-26 11:33 UTC. Time now 2014-Jul-26 13:12 UTC.
Position N 44°06' E 008°45'.

Length 33 m; draft 2.5 m.

MMSI: 319032100.

Date/timePositionNaut miles runAvg speedWind from/ knotsBaromVisibWave heightAir tempDewpointWater temp
2014-Jul-26 11:33N 44°06' E 008°45'1010.2
2014-Jul-26 10:33N 44°12' E 008°58'9 9.2
2014-Jul-26 09:33N 44°16' E 009°09'  
2014-Jul-23 09:34N 44°17' E 009°10'1110.6
2014-Jul-23 08:32N 44°15' E 008°55'1010.5
2014-Jul-23 07:32N 44°14' E 008°41'9 9.6
2014-Jul-23 06:33N 44°12' E 008°28'2 1.3
2014-Jul-23 05:13N 44°12' E 008°25'0 0.0
2014-Jul-23 04:25N 44°12' E 008°25'0 0.0
2014-Jul-23 03:19N 44°12' E 008°25'0 0.0
2014-Jul-23 02:31N 44°12' E 008°25'0 0.0
2014-Jul-23 01:31N 44°12' E 008°25'0 0.0
2014-Jul-23 00:31N 44°12' E 008°25'0 0.0
2014-Jul-22 23:16N 44°12' E 008°25'0 0.0
2014-Jul-22 22:13N 44°12' E 008°25'0 0.0
2014-Jul-22 19:31N 44°12' E 008°25'13 4.5
2014-Jul-22 16:31N 44°02' E 008°14'0 0.0
2014-Jul-22 15:33N 44°02' E 008°14'0 0.0
2014-Jul-22 14:33N 44°02' E 008°14'0 0.0
2014-Jul-22 13:33N 44°02' E 008°14'42 1.6
2014-Jul-21 10:19N 43°41' E 007°22'4 2.1
2014-Jul-21 08:28N 43°42' E 007°17'0 0.0
2014-Jul-21 07:28N 43°42' E 007°17'0 0.0
2014-Jul-21 06:22N 43°42' E 007°17'0 0.0
2014-Jul-21 04:22N 43°42' E 007°17'0 0.0
2014-Jul-21 03:28N 43°42' E 007°17'0 0.0
2014-Jul-21 02:28N 43°42' E 007°17'0 0.0
2014-Jul-21 01:22N 43°42' E 007°17'0 0.0
2014-Jul-21 00:28N 43°42' E 007°17'0 0.0
2014-Jul-20 23:22N 43°42' E 007°17'0 0.0
2014-Jul-20 22:10N 43°42' E 007°17'0 0.0
2014-Jul-20 20:10N 43°42' E 007°17'0 0.0
2014-Jul-20 19:28N 43°42' E 007°17'0 0.0
2014-Jul-20 18:28N 43°42' E 007°17'0 0.0
2014-Jul-20 17:22N 43°42' E 007°17'1 1.4
2014-Jul-20 16:30N 43°41' E 007°18'1 1.0
2014-Jul-20 15:28N 43°42' E 007°19'0 0.0
2014-Jul-20 14:32N 43°42' E 007°19'0 0.0
2014-Jul-20 13:33N 43°42' E 007°19'0 0.0
2014-Jul-20 12:33N 43°42' E 007°19'7 0.2
2014-Jul-18 16:07N 43°38' E 007°12'4 5.5
2014-Jul-18 15:23N 43°35' E 007°07'10 1.0
2014-Jul-18 05:33N 43°42' E 007°17'0 0.0
2014-Jul-18 04:27N 43°42' E 007°17'0 0.0
2014-Jul-18 03:33N 43°42' E 007°17'0 0.0
2014-Jul-18 02:33N 43°42' E 007°17'0 0.0
2014-Jul-18 01:21N 43°42' E 007°17'0 0.0
2014-Jul-18 00:33N 43°42' E 007°17'0 0.0
2014-Jul-17 23:33N 43°42' E 007°17'0 0.0
2014-Jul-17 22:27N 43°42' E 007°17'0 0.0
2014-Jul-17 19:03N 43°42' E 007°17'0 0.0
2014-Jul-17 17:27N 43°42' E 007°17'0 0.0
2014-Jul-17 15:13N 43°42' E 007°17'3 5.2
2014-Jul-17 14:33N 43°39' E 007°15'6 6.4
2014-Jul-17 13:33N 43°35' E 007°08'0 0.0
2014-Jul-17 12:33N 43°35' E 007°08'0 0.0
2014-Jul-17 11:33N 43°35' E 007°08'0 0.0
2014-Jul-17 10:33N 43°35' E 007°08'0 0.0
2014-Jul-17 09:33N 43°35' E 007°08'0 0.0
2014-Jul-17 08:33N 43°35' E 007°08'2 1.3
2014-Jul-17 07:24N 43°33' E 007°07'0 0.0
2014-Jul-17 06:30N 43°33' E 007°07'0 0.0
2014-Jul-17 05:30N 43°33' E 007°07'0 0.0
2014-Jul-17 04:30N 43°33' E 007°07'0 0.0
2014-Jul-17 03:30N 43°33' E 007°07'0 0.0
2014-Jul-17 02:24N 43°33' E 007°07'0 0.0
2014-Jul-17 01:30N 43°33' E 007°07'0 0.0
2014-Jul-17 00:24N 43°33' E 007°07'0 0.0
2014-Jul-16 23:30N 43°33' E 007°07'0 0.0
2014-Jul-16 22:24N 43°33' E 007°07'0 0.0
2014-Jul-16 21:30N 43°33' E 007°07'0 0.0
2014-Jul-16 20:30N 43°33' E 007°07'0 0.0
2014-Jul-16 19:18N 43°33' E 007°07'0 0.0
2014-Jul-16 18:18N 43°33' E 007°07'0 0.0
2014-Jul-16 17:30N 43°33' E 007°07'0 0.0
2014-Jul-16 16:30N 43°33' E 007°07'0 0.0
2014-Jul-16 15:33N 43°33' E 007°07'0 0.0
2014-Jul-16 14:33N 43°33' E 007°07'0 0.0
2014-Jul-16 13:33N 43°33' E 007°07'0 0.4
2014-Jul-16 12:33N 43°33' E 007°07'  

Dump ship's entire track history